Terminal Aerodrome Forecast
Issued by NWS

Home | Current Version | Previous Version | Text Only | Print | Product List | Glossary On
Versions: 1 2 3 4 5 6 7 8 9 10 11 12 13 14 15 16 17
000
FTUS45 KCYS 310722 AAA
TAFAIA
TAF AMD
KAIA 310722Z 3107/0106 36010KT P6SM BKN060
     FM310900 31010KT P6SM BKN060
     FM311500 28013G24KT P6SM SCT090
     FM311900 32015G25KT P6SM SCT090
     FM010100 33008KT P6SM SKC=

USA.gov is the U.S. government's official web portal to all federal, state and local government web resources and services.